CheckWX is a tool to help pilots better visualize weather data.  It is not intended as a substitute for an official pre-flight weather briefing.

19:29:04 UTC

PAQT TAF
Nuiqsut Airport
Nuiqsut, Alaska, USA
PAQT 231751Z 2318/2418 16015KT 5SM -SN BR OVC025 FM232100 22015KT 6SM -SN OVC040

Feb-23@
18:00 UTC

Feb-23 @ 18:00 UTC

Feb-23@
21:00 UTC

Feb-23 @ 21:00 UTC

PAQT 231751Z 2318/2418 16015KT 5SM -SN BR OVC025
Wind
  • 160° at 15 KTS
Conditions
Light Snow, Mist
Cloud Levels
  • Overcast at 2,500' AGL

Feb-23@
21:00 UTC

Feb-23 @ 21:00 UTC

Feb-24@
18:00 UTC

Feb-24 @ 18:00 UTC

FM232100 22015KT 6SM -SN OVC040

From

From Standard forecast or significant change

Wind
  • 220° at 15 KTS
Conditions
Light Snow
Cloud Levels
  • Overcast at 4,000' AGL